Time;durP1;ratioP1;P1;durP2;ratioP2;P2;SDS_P1;SDS_P2;PMS_P1;PMS_P2;Temp;Humidity;BMP_temperature;BMP_pressure;BME280_temperature;BME280_humidity;BME280_pressure;Samples;Min_cycle;Max_cycle;Signal;HPM_P1;HPM_P2
2021/05/08 00:02:01;;;;;;;25.03;18.33;;;4.90;84.00;;;;;;5033652;28;20593;-69
2021/05/08 00:04:26;;;;;;;27.00;17.17;;;4.90;85.10;;;;;;5033896;28;20391;-70
2021/05/08 00:06:52;;;;;;;25.88;19.35;;;5.00;84.10;;;;;;5034171;28;20732;-68
2021/05/08 00:09:18;;;;;;;28.25;19.30;;;4.90;84.70;;;;;;5033252;28;20411;-68
2021/05/08 00:11:44;;;;;;;23.98;17.63;;;5.00;84.60;;;;;;5025214;28;20383;-70
2021/05/08 00:14:09;;;;;;;25.47;17.63;;;4.90;85.00;;;;;;5032740;28;20892;-68
2021/05/08 00:16:35;;;;;;;26.75;18.52;;;4.90;84.50;;;;;;5033485;28;20395;-69
2021/05/08 00:19:02;;;;;;;26.88;18.55;;;4.90;84.90;;;;;;5033312;28;20379;-69
2021/05/08 00:21:27;;;;;;;27.80;18.70;;;4.80;84.70;;;;;;5027375;28;20887;-68
2021/05/08 00:23:53;;;;;;;27.17;18.57;;;4.70;85.10;;;;;;5012072;28;20393;-69
2021/05/08 00:26:18;;;;;;;30.63;19.83;;;4.60;85.80;;;;;;5012322;28;20400;-69
2021/05/08 00:28:44;;;;;;;26.47;18.47;;;4.50;86.80;;;;;;5018847;28;20399;-69
2021/05/08 00:31:10;;;;;;;24.43;18.00;;;4.70;88.60;;;;;;5017360;28;20415;-70
2021/05/08 00:33:35;;;;;;;27.83;17.52;;;4.70;86.00;;;;;;5012432;28;20781;-70
2021/05/08 00:36:01;;;;;;;29.80;19.60;;;4.70;84.80;;;;;;5012121;28;20389;-69
2021/05/08 00:38:26;;;;;;;24.30;18.55;;;4.60;85.60;;;;;;5011031;28;20462;-70
2021/05/08 00:40:52;;;;;;;26.20;18.47;;;4.50;87.20;;;;;;5011880;28;20400;-67
2021/05/08 00:43:17;;;;;;;28.60;18.70;;;4.50;88.70;;;;;;5011062;28;20410;-68
2021/05/08 00:45:43;;;;;;;26.20;18.63;;;4.60;89.90;;;;;;5012134;28;20447;-68
2021/05/08 00:48:13;;;;;;;25.90;18.83;;;4.60;90.50;;;;;;5012331;28;20502;-68
2021/05/08 00:50:40;;;;;;;29.15;18.10;;;4.70;90.40;;;;;;5012496;28;20468;-70
2021/05/08 00:53:08;;;;;;;26.85;18.55;;;4.90;89.40;;;;;;5012516;28;20404;-68
2021/05/08 00:55:35;;;;;;;24.92;18.27;;;4.90;87.70;;;;;;5029188;28;20398;-68
2021/05/08 00:58:01;;;;;;;23.05;17.15;;;5.00;84.70;;;;;;5031097;28;20401;-69
2021/05/08 01:00:27;;;;;;;25.02;18.00;;;5.10;82.90;;;;;;5030989;28;20470;-68
2021/05/08 01:02:53;;;;;;;23.50;17.63;;;5.10;81.20;;;;;;5031159;28;20485;-68
2021/05/08 01:05:19;;;;;;;23.25;17.70;;;5.20;81.30;;;;;;5026138;28;20474;-67
2021/05/08 01:07:45;;;;;;;24.50;16.60;;;5.40;77.40;;;;;;5020958;28;20443;-69
2021/05/08 01:10:13;;;;;;;29.73;16.92;;;5.50;74.10;;;;;;5029911;28;20910;-69
2021/05/08 01:12:39;;;;;;;22.58;16.83;;;5.50;74.00;;;;;;5017284;28;20488;-70
2021/05/08 01:15:07;;;;;;;25.33;17.50;;;5.60;73.60;;;;;;5030477;28;20419;-70
2021/05/08 01:17:33;;;;;;;26.30;18.02;;;5.60;70.50;;;;;;5019409;28;20403;-69
2021/05/08 01:19:59;;;;;;;25.30;16.80;;;5.60;69.00;;;;;;5011289;28;20471;-67
2021/05/08 01:22:25;;;;;;;26.00;17.45;;;5.50;69.80;;;;;;5010956;28;20421;-68
2021/05/08 01:24:50;;;;;;;23.30;18.08;;;5.40;70.40;;;;;;5009392;28;20886;-69
2021/05/08 01:27:16;;;;;;;25.85;17.48;;;5.20;71.40;;;;;;5011230;28;20423;-69
2021/05/08 01:29:41;;;;;;;30.00;17.57;;;5.10;72.50;;;;;;5011857;28;20385;-69
2021/05/08 01:32:07;;;;;;;23.23;18.30;;;5.00;73.20;;;;;;5027435;28;20474;-67
2021/05/08 01:34:33;;;;;;;24.40;17.10;;;5.00;73.30;;;;;;5028960;28;20527;-69
2021/05/08 01:36:58;;;;;;;25.90;18.70;;;4.90;73.40;;;;;;5030970;28;20767;-69
2021/05/08 01:39:24;;;;;;;24.10;17.80;;;4.90;73.30;;;;;;5030969;28;20914;-69
2021/05/08 01:41:49;;;;;;;25.73;18.03;;;4.80;73.80;;;;;;5022361;28;20400;-69
2021/05/08 01:44:15;;;;;;;23.77;17.63;;;4.80;72.80;;;;;;5010936;28;20462;-70
2021/05/08 01:46:40;;;;;;;30.17;18.63;;;4.80;74.30;;;;;;5010851;28;20741;-68
2021/05/08 01:49:06;;;;;;;24.88;18.63;;;4.80;74.80;;;;;;5011328;28;20388;-70
2021/05/08 01:51:32;;;;;;;23.63;17.65;;;4.80;74.30;;;;;;5016373;28;20751;-67
2021/05/08 01:53:57;;;;;;;26.00;18.75;;;4.80;73.80;;;;;;5028104;28;20814;-68
2021/05/08 01:56:24;;;;;;;29.63;19.73;;;4.80;74.30;;;;;;5030466;28;20412;-68
2021/05/08 01:58:50;;;;;;;28.38;19.67;;;4.80;74.30;;;;;;5030412;28;20406;-67
2021/05/08 02:01:15;;;;;;;29.80;20.00;;;4.70;74.30;;;;;;5027124;28;20875;-68
2021/05/08 02:03:41;;;;;;;28.70;19.42;;;4.80;73.70;;;;;;5010569;28;20397;-68
2021/05/08 02:06:07;;;;;;;27.88;19.58;;;4.80;72.80;;;;;;5027744;28;20398;-69
2021/05/08 02:08:33;;;;;;;24.23;18.58;;;4.80;72.20;;;;;;5035042;28;20395;-68
2021/05/08 02:10:59;;;;;;;28.48;19.65;;;4.90;71.40;;;;;;5029531;28;20396;-68
2021/05/08 02:13:24;;;;;;;27.00;19.85;;;4.90;72.10;;;;;;5017123;28;20880;-68
2021/05/08 02:15:50;;;;;;;29.00;19.63;;;4.90;71.70;;;;;;5014654;28;20462;-68
2021/05/08 02:18:16;;;;;;;29.00;20.50;;;4.90;72.20;;;;;;5014506;28;20381;-69
2021/05/08 02:20:43;;;;;;;26.17;18.80;;;4.90;72.60;;;;;;5014685;28;20468;-69
2021/05/08 02:23:11;;;;;;;29.85;19.50;;;4.90;70.90;;;;;;5032030;28;20399;-69
2021/05/08 02:25:37;;;;;;;27.23;19.07;;;4.80;70.60;;;;;;5034787;28;20386;-69
2021/05/08 02:28:03;;;;;;;30.60;20.48;;;4.80;71.20;;;;;;5032693;28;20399;-68
2021/05/08 02:30:34;;;;;;;26.85;19.40;;;4.80;71.20;;;;;;5034251;28;20387;-69
2021/05/08 02:33:01;;;;;;;27.02;19.13;;;4.80;71.80;;;;;;5017005;28;20878;-69
2021/05/08 02:35:27;;;;;;;28.65;20.15;;;4.70;72.50;;;;;;5028089;28;20411;-69
2021/05/08 02:37:54;;;;;;;28.20;20.98;;;4.70;73.10;;;;;;5033999;28;20394;-67
2021/05/08 02:40:32;;;;;;;25.17;19.87;;;4.70;74.70;;;;;;5034308;28;20394;-69
2021/05/08 02:42:58;;;;;;;28.00;20.40;;;4.70;74.20;;;;;;5033655;28;20383;-69
2021/05/08 02:45:24;;;;;;;27.70;19.80;;;4.80;72.50;;;;;;5021240;28;20389;-69
2021/05/08 02:47:51;;;;;;;27.35;19.63;;;4.70;72.40;;;;;;5013822;28;20916;-67
2021/05/08 02:50:18;;;;;;;24.65;18.50;;;4.70;73.60;;;;;;5012646;28;20475;-69
2021/05/08 02:52:44;;;;;;;26.27;18.85;;;4.70;72.70;;;;;;5017300;28;20772;-69
2021/05/08 02:55:10;;;;;;;31.65;19.92;;;4.80;71.50;;;;;;5033375;28;20403;-69
2021/05/08 02:57:36;;;;;;;24.92;18.88;;;4.80;70.90;;;;;;5033429;28;20883;-69
2021/05/08 03:00:08;;;;;;;33.92;21.00;;;4.90;71.00;;;;;;5033475;28;20448;-69
2021/05/08 03:02:34;;;;;;;28.77;19.75;;;5.00;70.90;;;;;;5018912;28;20393;-70
2021/05/08 03:05:00;;;;;;;26.27;18.93;;;5.00;69.30;;;;;;5019288;28;20779;-74
2021/05/08 03:07:25;;;;;;;28.33;18.40;;;5.10;67.30;;;;;;5033866;28;20391;-70
2021/05/08 03:09:51;;;;;;;25.80;17.58;;;5.20;65.90;;;;;;5033883;28;20383;-71
2021/05/08 03:12:16;;;;;;;23.15;17.55;;;5.30;65.90;;;;;;5025193;28;20480;-70
2021/05/08 03:14:42;;;;;;;24.17;17.17;;;5.30;63.00;;;;;;5030430;28;20413;-69
2021/05/08 03:17:07;;;;;;;25.50;17.90;;;5.40;62.10;;;;;;5013168;28;20399;-70
2021/05/08 03:19:33;;;;;;;24.20;17.00;;;5.40;59.90;;;;;;5013287;28;20393;-70
2021/05/08 03:21:58;;;;;;;24.10;17.60;;;5.40;61.90;;;;;;5013605;28;20787;-69
2021/05/08 03:24:24;;;;;;;23.07;16.67;;;5.30;62.30;;;;;;5013301;28;20435;-69
2021/05/08 03:26:50;;;;;;;25.33;16.70;;;5.20;62.30;;;;;;5013387;28;20721;-70
2021/05/08 03:29:15;;;;;;;21.47;17.10;;;5.20;60.70;;;;;;5031664;28;20403;-70
2021/05/08 03:31:41;;;;;;;22.13;16.37;;;5.20;61.50;;;;;;5022257;28;20758;-70
2021/05/08 03:34:07;;;;;;;21.70;16.50;;;5.20;62.10;;;;;;5012794;28;20431;-70
2021/05/08 03:36:33;;;;;;;22.13;16.55;;;5.30;61.80;;;;;;5013033;28;20385;-70
2021/05/08 03:38:58;;;;;;;23.40;16.17;;;5.30;58.50;;;;;;5023095;28;20440;-70
2021/05/08 03:41:24;;;;;;;21.80;16.90;;;5.50;57.20;;;;;;5032771;28;20860;-70
2021/05/08 03:43:49;;;;;;;23.13;17.10;;;5.50;55.70;;;;;;5032406;28;20383;-70
2021/05/08 03:46:15;;;;;;;23.50;17.40;;;5.60;55.20;;;;;;5032610;28;20946;-70
2021/05/08 03:48:41;;;;;;;24.52;17.73;;;5.50;55.90;;;;;;5087749;22;20427;-76
2021/05/08 03:51:06;;;;;;;23.02;16.67;;;5.50;54.60;;;;;;5073088;28;20368;-76
2021/05/08 03:53:32;;;;;;;23.30;17.38;;;5.40;55.60;;;;;;5071398;28;20395;-75
2021/05/08 03:55:58;;;;;;;22.90;16.90;;;5.40;55.50;;;;;;5072065;28;20394;-76
2021/05/08 03:58:27;;;;;;;25.43;17.70;;;5.30;55.90;;;;;;5058252;28;20381;-75
2021/05/08 04:00:52;;;;;;;21.95;17.70;;;5.20;57.40;;;;;;5053736;28;20392;-76
2021/05/08 04:03:18;;;;;;;23.23;17.40;;;5.20;57.90;;;;;;5052419;28;20381;-76
2021/05/08 04:05:44;;;;;;;22.87;17.00;;;5.30;57.30;;;;;;5052323;28;20400;-75
2021/05/08 04:08:10;;;;;;;20.95;16.88;;;5.30;56.00;;;;;;5051240;28;20846;-77
2021/05/08 04:10:36;;;;;;;21.50;16.70;;;5.30;56.30;;;;;;5052874;28;20655;-77
2021/05/08 04:13:01;;;;;;;27.25;17.90;;;5.30;56.40;;;;;;5052412;28;20877;-76
2021/05/08 04:15:27;;;;;;;29.00;17.75;;;5.40;57.50;;;;;;5052371;28;20929;-76
2021/05/08 04:17:52;;;;;;;22.63;17.17;;;5.40;55.90;;;;;;5052646;28;20877;-76
2021/05/08 04:20:18;;;;;;;24.30;17.17;;;5.40;55.80;;;;;;5052913;28;20385;-75
2021/05/08 04:22:43;;;;;;;22.05;17.67;;;5.50;56.70;;;;;;5053529;28;20904;-77
2021/05/08 04:25:10;;;;;;;26.15;18.90;;;5.50;55.70;;;;;;5067060;28;20401;-77
2021/05/08 04:27:35;;;;;;;25.30;17.90;;;5.50;55.70;;;;;;5068392;28;20403;-77
2021/05/08 04:30:01;;;;;;;24.50;16.80;;;5.50;54.80;;;;;;5053709;28;20393;-76
2021/05/08 04:32:26;;;;;;;21.00;16.63;;;5.50;54.20;;;;;;5052040;28;20393;-76
2021/05/08 04:34:52;;;;;;;20.98;17.00;;;5.50;55.30;;;;;;5050985;28;20435;-77
2021/05/08 04:37:17;;;;;;;24.75;18.00;;;5.50;55.80;;;;;;5053176;28;20394;-77
2021/05/08 04:39:44;;;;;;;24.00;17.80;;;5.50;54.40;;;;;;5052970;28;20381;-76
2021/05/08 04:42:10;;;;;;;24.58;18.08;;;5.60;55.40;;;;;;5052397;28;20382;-76
2021/05/08 04:44:35;;;;;;;26.52;18.48;;;5.60;55.60;;;;;;5052582;28;20398;-77
2021/05/08 04:47:01;;;;;;;24.63;18.30;;;5.70;53.80;;;;;;5053275;28;20385;-77
2021/05/08 04:49:26;;;;;;;26.60;19.03;;;5.60;53.60;;;;;;5053458;28;20472;-75
2021/05/08 04:51:54;;;;;;;22.90;17.43;;;5.60;54.30;;;;;;5054324;28;20531;-76
2021/05/08 04:54:20;;;;;;;26.23;19.50;;;5.60;54.60;;;;;;5054157;28;20410;-76
2021/05/08 04:56:46;;;;;;;26.63;18.13;;;5.60;55.60;;;;;;5055906;28;20466;-75
2021/05/08 04:59:11;;;;;;;26.17;18.80;;;5.70;55.80;;;;;;5053246;28;20945;-76
2021/05/08 05:01:37;;;;;;;24.43;18.00;;;5.80;54.30;;;;;;5051225;28;20374;-75
2021/05/08 05:04:03;;;;;;;23.57;18.40;;;5.90;53.70;;;;;;5051645;28;20436;-77
2021/05/08 05:06:28;;;;;;;27.35;18.40;;;6.00;51.00;;;;;;5052236;28;20377;-77
2021/05/08 05:08:54;;;;;;;22.55;17.48;;;6.00;52.50;;;;;;5050588;28;20385;-76
2021/05/08 05:11:21;;;;;;;23.88;18.27;;;6.20;50.30;;;;;;5053240;28;20392;-77
2021/05/08 05:13:47;;;;;;;27.25;18.63;;;6.30;48.70;;;;;;5044793;28;20913;-77
2021/05/08 05:16:13;;;;;;;24.50;18.10;;;6.40;47.90;;;;;;5051032;28;20400;-76
2021/05/08 05:18:39;;;;;;;24.83;17.80;;;6.60;46.80;;;;;;5053087;28;20442;-77
2021/05/08 05:21:05;;;;;;;23.47;17.70;;;6.70;45.70;;;;;;5052527;28;20738;-77
2021/05/08 05:23:30;;;;;;;21.48;16.58;;;6.80;44.60;;;;;;5050747;28;20393;-76
2021/05/08 05:25:56;;;;;;;27.40;17.27;;;7.00;43.40;;;;;;5052063;28;20447;-77
2021/05/08 05:28:27;;;;;;;21.93;17.07;;;7.30;41.00;;;;;;5052298;28;20712;-76
2021/05/08 05:30:53;;;;;;;20.80;16.40;;;7.50;42.10;;;;;;5050937;28;20411;-77
2021/05/08 05:33:19;;;;;;;21.40;16.10;;;7.60;38.20;;;;;;5051952;28;20405;-76
2021/05/08 05:35:49;;;;;;;19.67;15.05;;;7.80;36.90;;;;;;5052512;28;20405;-78
2021/05/08 05:38:16;;;;;;;19.85;15.93;;;7.90;37.60;;;;;;5054782;28;20408;-77
2021/05/08 05:40:42;;;;;;;18.52;14.27;;;7.90;36.80;;;;;;5054783;28;20386;-79
2021/05/08 05:43:08;;;;;;;17.58;14.38;;;8.00;35.00;;;;;;5058844;28;20404;-79
2021/05/08 05:45:34;;;;;;;17.90;14.10;;;8.00;35.00;;;;;;5061300;28;20389;-77
2021/05/08 05:48:04;;;;;;;18.83;14.07;;;7.90;36.20;;;;;;5062422;28;20437;-77
2021/05/08 05:50:31;;;;;;;17.65;13.93;;;8.00;36.00;;;;;;5055049;28;20853;-77
2021/05/08 05:52:56;;;;;;;17.50;13.40;;;8.10;35.90;;;;;;5053483;28;20382;-77
2021/05/08 05:55:26;;;;;;;16.63;13.00;;;8.30;34.30;;;;;;5047510;28;20416;-78
2021/05/08 05:57:54;;;;;;;16.55;12.73;;;8.40;33.20;;;;;;5053320;28;20405;-77
2021/05/08 06:00:20;;;;;;;17.10;12.38;;;8.60;31.90;;;;;;5060538;28;20385;-81
2021/05/08 06:02:46;;;;;;;15.68;11.65;;;8.70;31.90;;;;;;5067749;28;20484;-81
2021/05/08 06:05:12;;;;;;;12.90;11.50;;;8.80;30.80;;;;;;5060432;28;20410;-81
2021/05/08 06:07:38;;;;;;;13.98;11.23;;;9.00;29.80;;;;;;5051674;28;20418;-79
2021/05/08 06:10:05;;;;;;;15.38;11.10;;;9.00;30.10;;;;;;5064537;28;20397;-80
2021/05/08 06:12:31;;;;;;;14.00;11.05;;;9.10;29.60;;;;;;5049789;28;20430;-80
2021/05/08 06:14:57;;;;;;;12.70;10.75;;;9.20;28.60;;;;;;5047742;28;20399;-81
2021/05/08 06:17:23;;;;;;;12.50;10.43;;;9.20;28.60;;;;;;5053827;28;20506;-83
2021/05/08 06:19:48;;;;;;;15.17;10.90;;;9.40;29.40;;;;;;5059888;28;20399;-83
2021/05/08 06:22:14;;;;;;;12.23;10.40;;;9.60;28.00;;;;;;5059715;28;20402;-80
2021/05/08 06:24:40;;;;;;;10.98;9.40;;;9.80;26.30;;;;;;5054864;28;20455;-81
2021/05/08 06:27:06;;;;;;;10.40;9.30;;;10.10;24.60;;;;;;5074813;28;20935;-79
2021/05/08 06:29:31;;;;;;;15.82;9.80;;;10.50;23.00;;;;;;5070185;28;20397;-79
2021/05/08 06:31:57;;;;;;;12.55;9.35;;;10.80;22.60;;;;;;5069319;28;20815;-79
2021/05/08 06:34:23;;;;;;;11.68;9.52;;;11.00;21.80;;;;;;5064172;28;20814;-80
2021/05/08 06:36:48;;;;;;;11.48;9.02;;;11.20;21.50;;;;;;5064972;28;20390;-80
2021/05/08 06:39:14;;;;;;;11.48;9.07;;;11.30;21.10;;;;;;5069260;28;20409;-81
2021/05/08 06:41:40;;;;;;;13.10;8.93;;;11.40;19.80;;;;;;5062481;28;20394;-80
2021/05/08 06:44:05;;;;;;;10.90;8.70;;;11.40;19.10;;;;;;5053256;28;20403;-81
2021/05/08 06:46:31;;;;;;;9.75;8.40;;;11.50;18.90;;;;;;5053363;28;20397;-75
2021/05/08 06:48:57;;;;;;;11.52;8.90;;;11.60;19.00;;;;;;5054874;28;20431;-76
2021/05/08 06:51:22;;;;;;;12.27;8.67;;;11.90;18.60;;;;;;5045902;28;20404;-78
2021/05/08 06:53:48;;;;;;;9.57;8.43;;;12.00;17.60;;;;;;5053671;28;20417;-75
2021/05/08 06:56:14;;;;;;;9.38;7.80;;;12.10;18.10;;;;;;5054680;28;20384;-76
2021/05/08 06:58:40;;;;;;;8.60;7.60;;;12.20;17.10;;;;;;5054324;28;20410;-75
2021/05/08 07:01:07;;;;;;;8.70;7.80;;;12.30;17.50;;;;;;5058569;28;20393;-77
2021/05/08 07:03:32;;;;;;;13.65;8.00;;;12.50;16.80;;;;;;5056917;28;20394;-77
2021/05/08 07:05:58;;;;;;;9.10;7.97;;;12.50;15.40;;;;;;5054442;28;20422;-79
2021/05/08 07:08:24;;;;;;;13.00;7.20;;;12.70;15.30;;;;;;5060811;28;20438;-77
2021/05/08 07:10:51;;;;;;;10.07;7.63;;;12.70;15.00;;;;;;5047417;28;20735;-75
2021/05/08 07:13:18;;;;;;;13.98;8.32;;;12.90;14.70;;;;;;5051167;28;20401;-75
2021/05/08 07:15:43;;;;;;;11.68;7.88;;;12.90;15.40;;;;;;5058225;28;20393;-79
2021/05/08 07:18:12;;;;;;;12.10;8.00;;;12.80;15.40;;;;;;5064713;28;20417;-80
2021/05/08 07:20:39;;;;;;;9.63;7.30;;;12.80;14.80;;;;;;5063149;28;20397;-78
2021/05/08 07:23:05;;;;;;;11.02;8.20;;;12.80;14.00;;;;;;5060764;28;20394;-80
2021/05/08 07:25:32;;;;;;;10.65;7.65;;;12.80;14.30;;;;;;5062904;28;20399;-82
2021/05/08 07:28:21;;;;;;;10.90;7.30;;;12.80;14.20;;;;;;5053740;28;20438;-79
2021/05/08 07:30:48;;;;;;;11.73;7.15;;;12.80;14.00;;;;;;5063325;28;20416;-80
2021/05/08 07:33:15;;;;;;;11.40;7.00;;;12.90;14.30;;;;;;5059566;28;20455;-80
2021/05/08 07:35:41;;;;;;;12.65;7.18;;;12.90;14.00;;;;;;5063844;28;20757;-80
2021/05/08 07:38:08;;;;;;;10.05;7.60;;;13.00;13.90;;;;;;5047513;28;20387;-79
2021/05/08 07:40:34;;;;;;;9.98;7.45;;;13.20;12.60;;;;;;5073397;28;20532;-80
2021/05/08 07:43:00;;;;;;;10.18;7.80;;;13.10;13.00;;;;;;5061030;28;20394;-79
2021/05/08 07:45:27;;;;;;;9.43;7.30;;;13.20;13.30;;;;;;5051716;28;20389;-80
2021/05/08 07:47:53;;;;;;;10.55;7.88;;;13.20;12.50;;;;;;5060547;28;20731;-80
2021/05/08 07:50:20;;;;;;;11.68;8.00;;;13.30;12.70;;;;;;5052088;28;20554;-80
2021/05/08 07:52:46;;;;;;;13.10;7.80;;;13.40;12.70;;;;;;5057981;28;20916;-78
2021/05/08 07:55:12;;;;;;;13.85;8.40;;;13.70;12.00;;;;;;5058581;28;20401;-83
2021/05/08 07:57:39;;;;;;;10.07;7.60;;;13.60;12.20;;;;;;5051694;28;20412;-78
2021/05/08 08:00:07;;;;;;;12.68;8.43;;;13.70;12.10;;;;;;5046839;28;20393;-74
2021/05/08 08:02:33;;;;;;;10.93;7.80;;;13.70;11.60;;;;;;5033843;28;20395;-73
2021/05/08 08:04:58;;;;;;;12.82;7.30;;;13.90;12.30;;;;;;5039193;28;20412;-73
2021/05/08 08:07:24;;;;;;;9.88;7.78;;;14.10;11.50;;;;;;5052662;28;20461;-73
2021/05/08 08:09:50;;;;;;;10.50;7.60;;;14.20;11.90;;;;;;5046636;28;20391;-75
2021/05/08 08:12:15;;;;;;;9.93;6.80;;;14.30;11.80;;;;;;5054960;28;20401;-84
2021/05/08 08:14:41;;;;;;;12.13;8.33;;;14.40;10.90;;;;;;5056417;28;20413;-79
2021/05/08 08:17:06;;;;;;;11.50;6.90;;;14.50;10.80;;;;;;5056625;28;20388;-82
2021/05/08 08:19:32;;;;;;;10.97;7.30;;;14.50;11.40;;;;;;5056686;28;20393;-80
2021/05/08 08:21:58;;;;;;;11.25;7.10;;;14.70;10.30;;;;;;5057102;28;20765;-81
2021/05/08 08:24:25;;;;;;;10.75;7.00;;;14.80;10.00;;;;;;5055846;28;20854;-80
2021/05/08 08:26:50;;;;;;;11.90;7.20;;;14.90;10.40;;;;;;5056283;28;20397;-81
2021/05/08 08:29:16;;;;;;;11.45;6.82;;;15.00;10.90;;;;;;5055043;28;20902;-78
2021/05/08 08:31:43;;;;;;;10.95;6.75;;;15.00;10.50;;;;;;5055875;28;20401;-78
2021/05/08 08:34:08;;;;;;;11.68;7.15;;;15.30;10.10;;;;;;5059412;28;20481;-78
2021/05/08 08:36:34;;;;;;;8.55;6.70;;;15.30;9.90;;;;;;5057259;28;20801;-81
2021/05/08 08:39:00;;;;;;;9.80;7.07;;;15.40;10.10;;;;;;5061862;28;20382;-79
2021/05/08 08:41:26;;;;;;;11.20;6.87;;;15.60;9.50;;;;;;5064923;28;20448;-80
2021/05/08 08:43:52;;;;;;;12.15;7.55;;;15.70;9.10;;;;;;5055123;28;20413;-80
2021/05/08 08:46:19;;;;;;;9.95;6.80;;;15.90;8.30;;;;;;5055480;28;20487;-80
2021/05/08 08:48:46;;;;;;;8.82;6.93;;;16.00;8.70;;;;;;5054919;28;20406;-81
2021/05/08 08:51:14;;;;;;;10.38;7.03;;;16.30;8.10;;;;;;5056014;28;20427;-80
2021/05/08 08:53:40;;;;;;;9.57;6.50;;;16.40;7.40;;;;;;5055291;28;20409;-79
2021/05/08 08:56:06;;;;;;;24.58;15.70;;;16.30;8.00;;;;;;5055481;28;20405;-80
2021/05/08 08:58:37;;;;;;;130.57;83.63;;;16.30;7.70;;;;;;5055469;28;20450;-81
2021/05/08 09:01:05;;;;;;;51.45;33.30;;;16.50;8.50;;;;;;5055913;28;20743;-80
2021/05/08 09:03:31;;;;;;;10.10;6.43;;;16.50;7.90;;;;;;5055866;28;20472;-80
2021/05/08 09:05:59;;;;;;;108.13;71.03;;;16.40;7.50;;;;;;5055588;28;20424;-78
2021/05/08 09:08:25;;;;;;;22.80;14.93;;;16.40;8.90;;;;;;5063599;28;20404;-77
2021/05/08 09:10:52;;;;;;;33.83;22.77;;;16.50;8.30;;;;;;5058437;28;20397;-80
2021/05/08 09:13:20;;;;;;;26.95;17.02;;;16.60;8.20;;;;;;5055651;28;21053;-80
2021/05/08 09:15:47;;;;;;;35.88;24.02;;;16.70;7.40;;;;;;5055136;28;20382;-78
2021/05/08 09:18:31;;;;;;;25.00;16.25;;;16.70;7.60;;;;;;5059131;28;20483;-79
2021/05/08 09:20:58;;;;;;;35.45;21.27;;;16.80;7.70;;;;;;5057621;28;20377;-82
2021/05/08 09:23:35;;;;;;;27.33;18.50;;;16.80;7.70;;;;;;5059978;28;20387;-79
2021/05/08 09:26:05;;;;;;;18.88;12.52;;;16.90;7.70;;;;;;5058639;28;20400;-80
2021/05/08 09:28:37;;;;;;;12.90;7.30;;;17.10;7.70;;;;;;5054894;28;20382;-81
2021/05/08 09:31:05;;;;;;;12.13;8.55;;;17.40;7.10;;;;;;5057663;28;20396;-80
2021/05/08 09:33:31;;;;;;;11.20;6.45;;;17.50;6.10;;;;;;5056480;28;20377;-80
2021/05/08 09:36:04;;;;;;;12.60;8.63;;;17.50;6.10;;;;;;5055247;28;20453;-81
2021/05/08 09:38:32;;;;;;;10.75;7.47;;;17.70;6.20;;;;;;5056870;28;20401;-82
2021/05/08 09:40:59;;;;;;;9.43;6.78;;;17.80;6.30;;;;;;5056348;28;20370;-80
2021/05/08 09:43:24;;;;;;;11.87;7.40;;;18.00;5.60;;;;;;5055970;28;20389;-80
2021/05/08 09:45:53;;;;;;;11.13;6.60;;;18.00;5.20;;;;;;5054706;28;20381;-79
2021/05/08 09:48:22;;;;;;;8.73;5.93;;;18.20;5.10;;;;;;5064897;22;20444;-76
2021/05/08 09:50:48;;;;;;;9.43;5.90;;;18.40;5.00;;;;;;5051333;28;20431;-75
2021/05/08 09:53:28;;;;;;;10.73;5.93;;;18.40;5.20;;;;;;5049524;28;20377;-76
2021/05/08 09:55:54;;;;;;;10.38;6.20;;;18.60;4.40;;;;;;5051015;28;20451;-75
2021/05/08 09:58:25;;;;;;;8.93;5.65;;;18.50;3.80;;;;;;5051239;28;20862;-76
2021/05/08 10:00:52;;;;;;;9.35;6.00;;;18.40;4.20;;;;;;5049963;28;20397;-75
2021/05/08 10:03:19;;;;;;;8.63;5.10;;;18.50;4.50;;;;;;5049526;28;20385;-76
2021/05/08 10:05:58;;;;;;;10.80;6.20;;;18.40;3.40;;;;;;5063759;28;20384;-75
2021/05/08 10:08:23;;;;;;;9.88;5.53;;;18.40;3.20;;;;;;5069508;28;20388;-75
2021/05/08 10:10:49;;;;;;;10.85;5.70;;;18.40;2.90;;;;;;5066975;28;20451;-74
2021/05/08 10:13:16;;;;;;;8.40;5.32;;;18.50;3.30;;;;;;5050676;28;20417;-75
2021/05/08 10:15:41;;;;;;;9.50;5.85;;;18.50;3.20;;;;;;5049073;28;20405;-74
2021/05/08 10:18:14;;;;;;;9.23;5.40;;;18.80;3.80;;;;;;5050301;28;20396;-76
2021/05/08 10:20:41;;;;;;;9.10;4.82;;;19.00;3.00;;;;;;5049323;28;20781;-75
2021/05/08 10:23:08;;;;;;;7.43;4.70;;;19.20;1.70;;;;;;5050648;28;20377;-76
2021/05/08 10:25:35;;;;;;;7.93;4.43;;;19.10;2.00;;;;;;5049885;28;20436;-76
2021/05/08 10:28:01;;;;;;;6.80;4.40;;;19.10;1.80;;;;;;5053302;28;20393;-76
2021/05/08 10:30:34;;;;;;;8.93;4.80;;;19.30;1.00;;;;;;5055494;28;20884;-75
2021/05/08 10:33:00;;;;;;;11.10;4.90;;;19.40;1.00;;;;;;5055725;28;20754;-75
2021/05/08 10:35:45;;;;;;;10.20;4.90;;;19.70;1.10;;;;;;5057563;28;20405;-76
2021/05/08 10:38:30;;;;;;;6.30;4.10;;;19.70;1.00;;;;;;5054431;28;20830;-75
2021/05/08 10:40:56;;;;;;;9.05;6.40;;;19.90;1.00;;;;;;5055010;28;20389;-75
2021/05/08 10:43:47;;;;;;;9.13;5.82;;;20.00;1.00;;;;;;5056581;28;20739;-75
2021/05/08 10:46:15;;;;;;;6.93;4.88;;;20.10;1.00;;;;;;5059953;28;20389;-75
2021/05/08 10:49:06;;;;;;;10.07;6.00;;;20.10;1.00;;;;;;5054705;28;20397;-75
2021/05/08 10:51:57;;;;;;;6.65;4.75;;;20.50;1.00;;;;;;5054325;28;20424;-75
2021/05/08 10:54:43;;;;;;;7.80;4.50;;;20.50;1.00;;;;;;5055106;28;20815;-74
2021/05/08 10:57:19;;;;;;;10.40;4.10;;;20.30;1.00;;;;;;5052394;28;20373;-76
2021/05/08 11:00:20;;;;;;;5.95;3.53;;;20.10;1.00;;;;;;5053898;28;20464;-77
2021/05/08 11:02:45;;;;;;;7.07;3.63;;;20.20;1.00;;;;;;5018003;28;20415;-76
2021/05/08 11:05:31;;;;;;;4.30;3.20;;;20.40;1.00;;;;;;5053828;28;20492;-77
2021/05/08 11:07:57;;;;;;;5.32;3.30;;;20.40;1.00;;;;;;5053825;28;20552;-76
2021/05/08 11:10:34;;;;;;;6.60;3.40;;;20.50;1.00;;;;;;5054415;28;20382;-77
2021/05/08 11:13:17;;;;;;;5.55;3.22;;;20.50;1.00;;;;;;5053437;28;20397;-75
2021/05/08 11:15:55;;;;;;;4.63;2.90;;;20.40;1.00;;;;;;5055178;28;20551;-75
2021/05/08 11:18:43;;;;;;;6.00;3.50;;;20.50;1.00;;;;;;5052202;28;20389;-76
2021/05/08 11:21:08;;;;;;;4.70;2.85;;;20.60;1.00;;;;;;5053073;28;20390;-75
2021/05/08 11:24:04;;;;;;;4.13;3.03;;;20.80;1.00;;;;;;5052928;28;20484;-77
2021/05/08 11:26:29;;;;;;;5.93;2.78;;;20.90;1.00;;;;;;5053447;28;20390;-75
2021/05/08 11:28:56;;;;;;;5.77;2.87;;;21.00;1.00;;;;;;5053021;28;20723;-76
2021/05/08 11:31:26;;;;;;;4.97;3.00;;;20.80;1.00;;;;;;5053855;28;20484;-76
2021/05/08 11:33:52;;;;;;;4.25;2.90;;;20.80;1.00;;;;;;5051176;28;20722;-75
2021/05/08 11:36:18;;;;;;;4.20;3.00;;;20.60;1.00;;;;;;5053291;28;20431;-75
2021/05/08 11:38:44;;;;;;;5.50;2.75;;;20.60;1.00;;;;;;5052501;28;20431;-75
2021/05/08 11:41:23;;;;;;;6.88;3.33;;;20.90;1.00;;;;;;5051723;28;20463;-75
2021/05/08 11:43:53;;;;;;;3.15;2.80;;;21.00;1.00;;;;;;5052767;28;20432;-75
2021/05/08 11:46:27;;;;;;;4.75;2.50;;;20.90;1.00;;;;;;5053285;28;20505;-78
2021/05/08 11:48:53;;;;;;;4.20;2.35;;;20.40;1.00;;;;;;5054002;28;20401;-73
2021/05/08 11:51:19;;;;;;;5.00;2.00;;;20.00;1.00;;;;;;5053076;28;20780;-73
2021/05/08 11:54:05;;;;;;;3.30;2.03;;;19.60;1.00;;;;;;5051950;28;20527;-73
2021/05/08 11:56:31;;;;;;;3.33;2.22;;;19.60;1.00;;;;;;5050855;28;20396;-74
2021/05/08 11:58:56;;;;;;;4.35;2.08;;;19.30;1.30;;;;;;5051355;28;20768;-74
2021/05/08 12:01:22;;;;;;;5.33;2.00;;;18.80;2.40;;;;;;5051662;28;20472;-73
2021/05/08 12:03:54;;;;;;;3.40;2.00;;;18.50;3.60;;;;;;5052138;28;20468;-73
2021/05/08 12:06:20;;;;;;;3.75;2.10;;;18.30;4.80;;;;;;5065054;28;20400;-73
2021/05/08 12:08:46;;;;;;;2.10;1.90;;;18.10;5.50;;;;;;5052957;28;20389;-73
2021/05/08 12:11:19;;;;;;;2.60;2.40;;;18.10;5.80;;;;;;5054961;28;20397;-73
2021/05/08 12:13:46;;;;;;;2.55;1.90;;;18.20;5.80;;;;;;5049670;28;20528;-73
2021/05/08 12:16:12;;;;;;;2.60;1.80;;;18.10;5.90;;;;;;5047839;28;20389;-72
2021/05/08 12:18:39;;;;;;;2.95;2.30;;;18.00;7.10;;;;;;5059146;28;20390;-74
2021/05/08 12:21:07;;;;;;;3.50;1.90;;;17.90;7.40;;;;;;5059200;28;20394;-78
2021/05/08 12:23:37;;;;;;;2.63;2.10;;;17.80;7.90;;;;;;5055935;28;20455;-78
2021/05/08 12:26:11;;;;;;;2.70;1.90;;;18.00;8.10;;;;;;5051288;28;20716;-77
2021/05/08 12:28:52;;;;;;;3.70;2.17;;;17.90;9.20;;;;;;5047823;28;20854;-76
2021/05/08 12:31:34;;;;;;;4.30;2.17;;;17.90;10.40;;;;;;5055494;28;20462;-77
2021/05/08 12:34:05;;;;;;;3.50;2.00;;;17.70;11.30;;;;;;5050255;28;20489;-73
2021/05/08 12:36:34;;;;;;;2.92;1.48;;;17.80;11.70;;;;;;5051681;28;20389;-74
2021/05/08 12:39:18;;;;;;;3.47;1.92;;;17.70;10.90;;;;;;5051237;28;20393;-74
2021/05/08 12:41:57;;;;;;;4.60;1.70;;;17.70;11.30;;;;;;5051475;28;20414;-73
2021/05/08 12:44:37;;;;;;;4.20;1.60;;;17.50;10.00;;;;;;5051487;28;20400;-73
2021/05/08 12:47:04;;;;;;;3.57;1.90;;;17.30;9.20;;;;;;5051563;28;20430;-74